Pinerolo, Italy

2:26 PM CET on December 11, 2016 (GMT +0100)
Stazione Meteo Pinerolese | | Change Station
Active Advisory: >

Elev 1236 ft 44.88 °N, 7.33 °E | Updated 2 seconds ago

Clear
Clear
53.8 °F
Feels Like 53.8 °F
N
4.6
Wind Variable Wind from SW
Gusts 4.6 mph

Today
High -- | Low -- °F
--% Chance of Precip.
Yesterday
High -- | Low -- °F
Precip. -- in
Pressure 30.04 in
Visibility -9999.0 miles
Clouds
Dew Point 39 °F
Humidity 57%
Rainfall 0.00 in
Snow Depth Not available.
7:58 AM 4:49 PM
Waxing Gibbous, 91% visible
METAR LIMK 111255Z 00000KT CAVOK 07/04 Q1017 RMK BKN BKN160 VAL FOSCHIA VIS MIN 9999
Pressure 30.04 in
Visibility -9999.0 miles
Clouds
Dew Point 39 °F
Humidity 57%
Rainfall 0.00 in
Snow Depth Not available.
7:58 AM 4:49 PM
Waxing Gibbous, 91% visible
METAR LIMK 111255Z 00000KT CAVOK 07/04 Q1017 RMK BKN BKN160 VAL FOSCHIA VIS MIN 9999

10-Day Weather Forecast

×

Almanac

Astronomy

Dec. 11, 2016 Rise Set
Actual Time
Civil Twilight
Nautical Twilight
Astronomical Twilight
Moon
Length of Visible Light
Length of Day
Tomorrow will be .
, % of the Moon is Illuminated

Today's Extremes

Country Highs Country Lows

Community

WunderPhotos

Upload Photos

1,956,710 photos uploaded!

WunderBlog® & News

Nearby

Air Quality

  Air Quality AQ Index Pollutant
Not available.

Snow Depth

Station Depth Elevation

Earthquake Activity

City Distance Mag. Time & Date
Minimum magnitude displayed is 2.5.

Coastal Water Temperatures

Place Temperature

Stations

Nearby Weather Stations

Station Location Temp. Windchill Dew Point Humidity Wind Precip. Elev Updated Type